Flight Track Log - Related Links

Times and Time Zones

All times are in EDT time to prevent confusion due to time zone crossing. See the ASQ6185 flight status page for this flight to view local times or setup timezone preferences in your user account.

Time Position Orientation Groundspeed Altitude Reporting Facility
EDT Latitude Longitude Course Direction KTS MPH feet Rate Location/Type
Fri 08:56:31 PM 35.8664 -78.8139 11° North 154 177 1,800  Level Washington Center
Fri 08:57:02 PM 35.8494 -78.8286 215° Southwest 158 182 3,100 2,637 Climbing Washington Center
Fri 08:58:02 PM 35.8169 -78.8683 225° Southwest 181 208 5,800 2,655 Climbing Washington Center
Fri 08:58:55 PM 35.8533 -78.9158 313° West 235 270 8,100 2,177 Climbing Washington Center
Fri 08:59:55 PM 35.9292 -78.8883 16° North 223 257 9,900 1,550 Climbing Washington Center
Fri 09:00:00 PM 36.2986 -78.6171 15° North  Level FlightAware Approximate
Fri 09:00:55 PM 36.0183 -78.8278 29° Northeast 286 329 11,200  Level Washington Center
Fri 09:01:00 PM 36.3871 -78.5907 11° North  Level FlightAware Approximate
Fri 09:01:55 PM 36.1203 -78.7650 26° Northeast 352 405 12,200  Level Washington Center
Fri 09:02:55 PM 36.2244 -78.6972 28° Northeast 399 459 13,700 1,750 Climbing Washington Center
Fri 09:03:55 PM 36.3325 -78.6292 27° Northeast 432 497 15,700 1,900 Climbing Washington Center
Fri 09:04:55 PM 36.4464 -78.5847 17° North 432 497 17,500 1,900 Climbing Washington Center
Fri 09:05:55 PM 36.5600 -78.5425 17° North 422 486 19,500 1,700 Climbing Washington Center
Fri 09:06:55 PM 36.6506 -78.5097 16° North 422 486 20,900 750 Climbing Washington Center
Fri 09:07:55 PM 36.7772 -78.4469 22° Northeast 417 480 21,000 50 Climbing Washington Center
Fri 09:08:55 PM 36.8728 -78.3725 32° Northeast 399 459 21,000  Level Washington Center
Fri 09:09:55 PM 36.9664 -78.2928 34° Northeast 399 459 21,000  Level Washington Center
Fri 09:10:55 PM 37.0600 -78.2181 32° Northeast 399 459 21,000  Level Washington Center
Fri 09:11:55 PM 37.1619 -78.1328 34° Northeast 411 473 21,000  Level Washington Center
Fri 09:12:55 PM 37.2658 -78.0475 33° Northeast 425 489 21,000  Level Washington Center
Fri 09:13:55 PM 37.3783 -77.9572 33° Northeast 456 525 21,000  Level Washington Center
Fri 09:14:55 PM 37.4886 -77.8611 35° Northeast 470 541 21,000 -50 Level Washington Center
Fri 09:15:55 PM 37.6089 -77.7808 28° Northeast 481 554 20,900 -1,250 Descending Washington Center
Fri 09:16:55 PM 37.7269 -77.7106 25° Northeast 481 554 18,500 -2,450 Descending Washington Center
Fri 09:17:55 PM 37.8428 -77.6456 24° Northeast 467 537 16,000 -2,300 Descending Washington Center
Fri 09:18:55 PM 37.9586 -77.5775 25° Northeast 462 532 13,900 -1,950 Descending Washington Center
Fri 09:19:55 PM 38.0575 -77.5247 23° Northeast 444 511 12,100 -1,750 Descending Washington Center
Fri 09:20:55 PM 38.1628 -77.4589 26° Northeast 427 491 10,400 -1,050 Descending Washington Center
Fri 09:21:55 PM 38.2597 -77.4003 25° Northeast 402 463 10,000 -1,250 Descending Washington Center
Fri 09:22:55 PM 38.3481 -77.3575 21° North 368 423 7,900 -2,450 Descending Washington Center
Fri 09:23:55 PM 38.4356 -77.3597 359° North 330 380 5,100 -1,950 Descending Washington Center
Fri 09:24:55 PM 38.5081 -77.3800 348° North 285 328 4,000 -550 Descending Washington Center
Fri 09:25:55 PM 38.5725 -77.4053 343° North 259 298 4,000  Level Washington Center
Fri 09:26:55 PM 38.6283 -77.4306 341° North 235 270 4,000  Level Washington Center
Fri 09:27:55 PM 38.6886 -77.4456 349° North 222 255 4,000 -450 Level Washington Center
Fri 09:28:55 PM 38.7533 -77.4417 North 222 255 3,100 -900 Descending Washington Center

Login

Don't have an account? Register now (free) for customized features, flight alerts, and more!